Time;durP1;ratioP1;P1;durP2;ratioP2;P2;SDS_P1;SDS_P2;PMS_P1;PMS_P2;Temp;Humidity;BMP_temperature;BMP_pressure;BME280_temperature;BME280_humidity;BME280_pressure;Samples;Min_cycle;Max_cycle;Signal;HPM_P1;HPM_P2
2021/03/18 00:01:34;;;;;;;0.20;0.10;;;;;;;0.55;100.00;101194.63;5001409;28;20519;-78
2021/03/18 00:04:01;;;;;;;0.20;0.10;;;;;;;0.57;100.00;101185.97;5013214;28;20508;-78
2021/03/18 00:06:27;;;;;;;0.20;0.10;;;;;;;0.48;100.00;101177.00;5013311;28;20943;-78
2021/03/18 00:08:53;;;;;;;0.20;0.20;;;;;;;0.40;100.00;101168.94;5013059;28;20460;-78
2021/03/18 00:11:22;;;;;;;0.20;0.10;;;;;;;0.27;100.00;101154.69;5013397;28;20452;-78
2021/03/18 00:13:48;;;;;;;0.20;0.20;;;;;;;0.39;100.00;101155.81;5012769;28;20500;-78
2021/03/18 00:16:16;;;;;;;0.20;0.10;;;;;;;0.33;100.00;101163.50;5013516;28;20457;-79
2021/03/18 00:18:51;;;;;;;0.20;0.10;;;;;;;0.09;100.00;101140.19;5013034;28;20480;-79
2021/03/18 00:21:18;;;;;;;0.20;0.10;;;;;;;0.39;100.00;101158.44;5013047;28;20455;-79
2021/03/18 00:23:46;;;;;;;0.20;0.10;;;;;;;0.45;100.00;101149.03;5014124;28;20472;-78
2021/03/18 00:26:13;;;;;;;0.20;0.10;;;;;;;0.46;100.00;101139.47;5013305;28;20456;-78
2021/03/18 00:28:39;;;;;;;0.20;0.20;;;;;;;0.33;100.00;101133.03;5013983;28;20456;-78
2021/03/18 00:31:06;;;;;;;0.20;0.10;;;;;;;0.11;100.00;101146.34;5013091;28;20822;-78
2021/03/18 00:33:33;;;;;;;0.20;0.10;;;;;;;0.02;100.00;101128.72;5013756;28;20492;-79
2021/03/18 00:36:00;;;;;;;0.20;0.10;;;;;;;0.07;100.00;101127.09;5015534;28;20807;-78
2021/03/18 00:38:26;;;;;;;0.20;0.10;;;;;;;0.07;100.00;101144.50;5014092;28;20524;-79
2021/03/18 00:40:56;;;;;;;0.20;0.10;;;;;;;-0.14;100.00;101147.38;5014416;28;20460;-78
2021/03/18 00:43:23;;;;;;;0.20;0.10;;;;;;;-0.23;100.00;101136.69;5029288;28;20468;-78
2021/03/18 00:45:50;;;;;;;0.20;0.10;;;;;;;-0.33;100.00;101152.09;5026503;28;20456;-79
2021/03/18 00:48:18;;;;;;;0.20;0.10;;;;;;;-0.35;100.00;101137.22;5018684;28;20840;-78
2021/03/18 00:50:51;;;;;;;0.50;0.50;;;;;;;-0.30;100.00;101140.84;5017997;28;20532;-78
2021/03/18 00:53:40;;;;;;;0.20;0.10;;;;;;;0.02;100.00;101136.56;5018078;28;21008;-79
2021/03/18 00:56:14;;;;;;;0.20;0.10;;;;;;;-0.40;100.00;101139.72;5015635;28;20507;-78
2021/03/18 00:58:44;;;;;;;0.20;0.10;;;;;;;-0.23;100.00;101144.53;5015009;28;20503;-78
2021/03/18 01:01:13;;;;;;;0.20;0.10;;;;;;;-0.23;100.00;101134.97;5013014;28;20452;-78
2021/03/18 01:03:41;;;;;;;0.20;0.10;;;;;;;-0.31;100.00;101141.69;5012870;28;20477;-78
2021/03/18 01:06:19;;;;;;;0.20;0.20;;;;;;;-0.43;100.00;101147.44;5013861;28;20480;-79
2021/03/18 01:08:46;;;;;;;0.20;0.10;;;;;;;-0.40;100.00;101136.22;5012432;28;20444;-78
2021/03/18 01:11:21;;;;;;;0.20;0.10;;;;;;;-0.35;100.00;101142.44;5012602;28;20872;-78
2021/03/18 01:13:51;;;;;;;0.20;0.10;;;;;;;-0.16;100.00;101134.28;5012231;28;20610;-78
2021/03/18 01:16:23;;;;;;;0.20;0.10;;;;;;;-0.33;100.00;101133.81;5013961;28;20445;-78
2021/03/18 01:18:51;;;;;;;0.30;0.20;;;;;;;-0.57;100.00;101140.91;5012252;28;20457;-78
2021/03/18 01:21:18;;;;;;;0.20;0.10;;;;;;;-0.64;100.00;101134.63;5013705;28;20460;-78
2021/03/18 01:23:46;;;;;;;0.20;0.10;;;;;;;-0.48;100.00;101141.19;5013252;28;20893;-78
2021/03/18 01:26:12;;;;;;;0.20;0.10;;;;;;;-0.61;100.00;101145.16;5013757;28;20871;-78
2021/03/18 01:28:39;;;;;;;0.30;0.20;;;;;;;-0.79;100.00;101131.56;5013216;28;20499;-78
2021/03/18 01:31:07;;;;;;;0.20;0.10;;;;;;;-0.71;100.00;101137.00;5012260;28;20453;-78
2021/03/18 01:33:34;;;;;;;0.20;0.10;;;;;;;-0.76;100.00;101144.69;5012060;28;20527;-78
2021/03/18 01:36:02;;;;;;;0.20;0.20;;;;;;;-0.89;100.00;101142.53;5011825;28;20483;-79
2021/03/18 01:38:30;;;;;;;0.20;0.10;;;;;;;-0.70;100.00;101152.72;5012812;28;20495;-78
2021/03/18 01:40:57;;;;;;;0.20;0.10;;;;;;;-0.33;100.00;101153.81;5012124;28;20463;-78
2021/03/18 01:43:27;;;;;;;0.20;0.20;;;;;;;-0.59;100.00;101145.22;5011992;28;20472;-78
2021/03/18 01:45:54;;;;;;;0.20;0.10;;;;;;;-0.54;100.00;101142.75;5013121;28;20479;-78
2021/03/18 01:48:22;;;;;;;0.20;0.10;;;;;;;-0.61;100.00;101158.22;5016234;28;20452;-78
2021/03/18 01:50:49;;;;;;;2.00;1.90;;;;;;;-0.82;100.00;101159.25;5015783;28;20530;-78
2021/03/18 01:53:18;;;;;;;0.20;0.10;;;;;;;-0.40;100.00;101155.38;5015849;28;20500;-78
2021/03/18 01:55:46;;;;;;;0.20;0.10;;;;;;;-0.67;100.00;101165.00;5016158;28;20457;-78
2021/03/18 01:58:13;;;;;;;0.20;0.10;;;;;;;-0.68;100.00;101168.44;5015678;28;20452;-78
2021/03/18 02:00:41;;;;;;;0.20;0.10;;;;;;;-0.82;100.00;101162.78;5016893;28;20502;-78
2021/03/18 02:03:08;;;;;;;0.20;0.10;;;;;;;-1.05;100.00;101167.28;5002414;28;20479;-78
2021/03/18 02:05:35;;;;;;;0.20;0.10;;;;;;;-0.88;100.00;101172.13;5016444;28;20464;-79
2021/03/18 02:08:01;;;;;;;0.20;0.13;;;;;;;-0.78;100.00;101166.38;5015648;28;20534;-78
2021/03/18 02:10:30;;;;;;;0.20;0.10;;;;;;;-0.80;100.00;101132.41;5015555;28;20452;-78
2021/03/18 02:12:58;;;;;;;0.20;0.10;;;;;;;-0.79;100.00;101173.31;5015378;28;20510;-78
2021/03/18 02:15:27;;;;;;;0.20;0.10;;;;;;;-0.79;100.00;101165.50;5016832;28;20511;-78
2021/03/18 02:18:12;;;;;;;0.20;0.10;;;;;;;-0.70;100.00;101170.09;5016736;28;20448;-78
2021/03/18 02:21:01;;;;;;;0.20;0.10;;;;;;;-0.77;100.00;101160.31;5015519;28;20456;-78
2021/03/18 02:23:58;;;;;;;0.20;0.10;;;;;;;-0.86;100.00;101175.69;5014985;28;20514;-78
2021/03/18 02:26:33;;;;;;;0.20;0.10;;;;;;;-1.17;100.00;101166.88;5015009;28;20965;-78
2021/03/18 02:29:18;;;;;;;0.20;0.10;;;;;;;-1.15;100.00;101166.91;5017191;28;20452;-78
2021/03/18 02:32:17;;;;;;;0.20;0.10;;;;;;;-1.16;100.00;101165.16;5020450;28;20495;-78
2021/03/18 02:35:08;;;;;;;0.20;0.10;;;;;;;-1.02;100.00;101166.47;5015264;28;20477;-78
2021/03/18 02:37:37;;;;;;;0.20;0.10;;;;;;;-0.98;100.00;101161.41;5016419;28;20445;-78
2021/03/18 02:40:07;;;;;;;0.20;0.10;;;;;;;-1.25;100.00;101152.69;5016311;28;20459;-78
2021/03/18 02:42:36;;;;;;;0.20;0.10;;;;;;;-1.25;100.00;101152.69;5016038;28;21070;-78
2021/03/18 02:45:05;;;;;;;0.20;0.10;;;;;;;-1.33;100.00;101155.06;5014749;28;20515;-78
2021/03/18 02:47:34;;;;;;;0.20;0.10;;;;;;;-1.54;100.00;101155.19;4998744;28;20452;-78
2021/03/18 02:50:04;;;;;;;0.20;0.10;;;;;;;-1.43;100.00;101146.88;5014814;28;20954;-78
2021/03/18 02:52:31;;;;;;;0.20;0.10;;;;;;;-1.45;100.00;101159.84;5015062;28;20987;-78
2021/03/18 02:54:59;;;;;;;0.20;0.10;;;;;;;-1.45;100.00;101164.19;5002906;28;20492;-78
2021/03/18 02:57:29;;;;;;;0.20;0.10;;;;;;;-1.45;100.00;101165.06;5015826;28;20833;-78
2021/03/18 02:59:57;;;;;;;0.20;0.10;;;;;;;-1.59;100.00;101146.34;5015144;28;20907;-78
2021/03/18 03:02:29;;;;;;;0.20;0.10;;;;;;;-1.65;100.00;101148.72;5014610;28;20536;-78
2021/03/18 03:04:57;;;;;;;0.20;0.10;;;;;;;-1.72;100.00;101154.56;5014522;28;20462;-78
2021/03/18 03:07:26;;;;;;;0.20;0.10;;;;;;;-1.71;100.00;101158.06;5015583;28;20461;-79
2021/03/18 03:09:56;;;;;;;0.20;0.10;;;;;;;-1.63;100.00;101146.19;5014662;28;20453;-78
2021/03/18 03:12:25;;;;;;;0.20;0.10;;;;;;;-1.38;100.00;101148.78;5015905;28;20457;-78
2021/03/18 03:14:54;;;;;;;0.20;0.10;;;;;;;-1.54;100.00;101159.53;5015651;28;20563;-78
2021/03/18 03:17:23;;;;;;;0.20;0.10;;;;;;;-1.65;100.00;101146.13;5015476;28;20471;-78
2021/03/18 03:19:56;;;;;;;0.20;0.10;;;;;;;-1.68;100.00;101153.84;5015576;28;20492;-78
2021/03/18 03:22:23;;;;;;;0.20;0.10;;;;;;;-1.59;100.00;101150.69;5015146;28;20532;-78
2021/03/18 03:24:51;;;;;;;0.20;0.10;;;;;;;-1.63;100.00;101141.00;5015728;28;20507;-78
2021/03/18 03:27:17;;;;;;;0.20;0.10;;;;;;;-1.74;100.00;101151.03;5015450;28;20962;-78
2021/03/18 03:29:45;;;;;;;0.20;0.10;;;;;;;-1.78;100.00;101154.38;5015133;28;20488;-78
2021/03/18 03:32:13;;;;;;;0.20;0.10;;;;;;;-1.83;100.00;101142.88;5015109;28;20495;-78
2021/03/18 03:34:40;;;;;;;0.20;0.10;;;;;;;-1.85;100.00;101155.88;5014192;28;20492;-78
2021/03/18 03:37:08;;;;;;;0.20;0.10;;;;;;;-1.75;100.00;101143.16;5013501;28;20503;-78
2021/03/18 03:39:36;;;;;;;0.20;0.10;;;;;;;-1.73;100.00;101141.50;5013926;28;20452;-79
2021/03/18 03:42:04;;;;;;;0.20;0.10;;;;;;;-1.68;100.00;101151.22;5013614;28;20453;-78
2021/03/18 03:44:31;;;;;;;0.20;0.10;;;;;;;-1.83;100.00;101146.38;5013223;28;20530;-78
2021/03/18 03:46:57;;;;;;;0.20;0.10;;;;;;;-1.74;100.00;101153.66;5014904;28;20829;-78
2021/03/18 03:49:24;;;;;;;0.20;0.10;;;;;;;-1.67;100.00;101152.13;5014448;28;20460;-78
2021/03/18 03:52:04;;;;;;;0.20;0.10;;;;;;;-1.89;100.00;101145.28;5015943;28;20452;-77
2021/03/18 03:54:31;;;;;;;0.20;0.10;;;;;;;-1.90;100.00;101148.72;5014994;28;20542;-77
2021/03/18 03:57:08;;;;;;;0.20;0.10;;;;;;;-1.93;100.00;101148.59;5014523;28;20938;-78
2021/03/18 03:59:38;;;;;;;0.20;0.10;;;;;;;-1.91;100.00;101152.16;5013100;28;20449;-78
2021/03/18 04:02:06;;;;;;;0.20;0.10;;;;;;;-1.99;100.00;101145.78;5013402;28;20449;-77
2021/03/18 04:04:38;;;;;;;0.20;0.10;;;;;;;-1.85;100.00;101144.56;5012803;28;20478;-78
2021/03/18 04:07:09;;;;;;;0.20;0.10;;;;;;;-1.77;100.00;101145.72;5014120;28;20448;-78
2021/03/18 04:09:37;;;;;;;0.20;0.10;;;;;;;-1.94;100.00;101142.50;4999248;28;20511;-77
2021/03/18 04:12:07;;;;;;;0.20;0.10;;;;;;;-1.89;100.00;101143.56;5012704;28;20899;-78
2021/03/18 04:14:36;;;;;;;0.20;0.10;;;;;;;-1.81;100.00;101146.44;5012615;28;20503;-78
2021/03/18 04:17:10;;;;;;;0.20;0.10;;;;;;;-1.65;100.00;101145.22;5012805;28;20453;-78
2021/03/18 04:19:39;;;;;;;0.20;0.10;;;;;;;-1.75;100.00;101146.66;5013787;28;20957;-78
2021/03/18 04:22:07;;;;;;;0.20;0.10;;;;;;;-1.75;100.00;101145.78;5012726;28;20453;-78
2021/03/18 04:24:34;;;;;;;0.20;0.10;;;;;;;-1.81;100.00;101147.31;5012522;28;20946;-78
2021/03/18 04:27:00;;;;;;;0.20;0.10;;;;;;;-1.72;100.00;101141.53;5013294;28;20453;-78
2021/03/18 04:29:28;;;;;;;0.20;0.10;;;;;;;-1.62;100.00;101143.66;5013371;28;20453;-78
2021/03/18 04:31:56;;;;;;;0.20;0.10;;;;;;;-1.77;100.00;101143.13;5013332;28;20522;-78
2021/03/18 04:34:43;;;;;;;0.20;0.10;;;;;;;-1.84;100.00;101139.41;5012193;28;20492;-79
2021/03/18 04:37:10;;;;;;;0.20;0.10;;;;;;;-1.80;100.00;101146.47;5013181;28;20449;-78
2021/03/18 04:39:38;;;;;;;0.20;0.10;;;;;;;-1.91;100.00;101145.25;5011900;28;20511;-77
2021/03/18 04:42:06;;;;;;;0.20;0.10;;;;;;;-1.98;100.00;101145.84;5013299;28;20491;-77
2021/03/18 04:44:33;;;;;;;0.20;0.10;;;;;;;-1.84;100.00;101149.81;5013066;28;20865;-78
2021/03/18 04:47:01;;;;;;;0.20;0.10;;;;;;;-1.89;100.00;101150.50;5011930;28;20999;-78
2021/03/18 04:49:28;;;;;;;0.20;0.10;;;;;;;-1.97;100.00;101146.72;5013163;28;20484;-78
2021/03/18 04:51:54;;;;;;;0.20;0.10;;;;;;;-1.87;100.00;101154.03;5011796;28;20801;-79
2021/03/18 04:54:21;;;;;;;0.20;0.10;;;;;;;-1.97;100.00;101129.38;5012961;28;20496;-77
2021/03/18 04:56:50;;;;;;;0.20;0.10;;;;;;;-1.99;100.00;101141.47;5011645;28;20456;-78
2021/03/18 04:59:17;;;;;;;0.20;0.10;;;;;;;-1.94;100.00;101142.50;5011606;28;20461;-78
2021/03/18 05:01:50;;;;;;;0.20;0.10;;;;;;;-1.53;100.00;101137.84;5012509;28;20480;-78
2021/03/18 05:04:19;;;;;;;0.20;0.10;;;;;;;-1.52;100.00;101150.03;5012668;28;20881;-77
2021/03/18 05:06:53;;;;;;;0.20;0.10;;;;;;;-1.17;100.00;101152.94;5011601;28;20923;-77
2021/03/18 05:09:23;;;;;;;0.20;0.10;;;;;;;-1.38;100.00;101140.06;5011693;28;20953;-77
2021/03/18 05:11:54;;;;;;;0.20;0.10;;;;;;;-1.44;100.00;101147.69;5011593;28;20459;-77
2021/03/18 05:14:22;;;;;;;0.20;0.10;;;;;;;-1.50;100.00;101144.06;5012531;28;20492;-77
2021/03/18 05:16:50;;;;;;;0.20;0.10;;;;;;;-1.65;100.00;101130.47;5012846;28;20444;-78
2021/03/18 05:19:17;;;;;;;0.20;0.10;;;;;;;-1.79;100.00;101135.22;5011515;28;20464;-77
2021/03/18 05:21:45;;;;;;;0.20;0.10;;;;;;;-1.80;100.00;101133.44;5010717;28;20467;-78
2021/03/18 05:24:12;;;;;;;0.20;0.10;;;;;;;-1.80;100.00;101128.25;5011585;28;20473;-78
2021/03/18 05:26:41;;;;;;;0.20;0.10;;;;;;;-1.81;100.00;101128.19;5012671;28;20487;-78
2021/03/18 05:29:08;;;;;;;0.20;0.10;;;;;;;-1.97;100.00;101125.88;4998763;28;20452;-77
2021/03/18 05:31:35;;;;;;;0.20;0.10;;;;;;;-1.92;100.00;101121.72;5011248;28;20503;-78
2021/03/18 05:34:01;;;;;;;0.20;0.10;;;;;;;-2.08;100.00;101102.06;5011542;28;20520;-78
2021/03/18 05:36:28;;;;;;;0.20;0.10;;;;;;;-1.97;100.00;101116.34;5012277;28;20962;-78
2021/03/18 05:38:54;;;;;;;0.20;0.10;;;;;;;-1.96;100.00;101120.72;5011439;28;20871;-78
2021/03/18 05:41:21;;;;;;;0.20;0.10;;;;;;;-1.92;100.00;101120.03;5012418;28;21016;-77
2021/03/18 05:43:48;;;;;;;0.20;0.10;;;;;;;-1.82;100.00;101118.59;5012444;28;20472;-77
2021/03/18 05:46:16;;;;;;;0.20;0.10;;;;;;;-1.96;100.00;101086.88;5012377;28;20484;-77
2021/03/18 05:48:44;;;;;;;0.20;0.10;;;;;;;-1.80;100.00;101096.09;5012624;28;20539;-77
2021/03/18 05:51:15;;;;;;;0.20;0.10;;;;;;;-1.66;100.00;101112.19;5011278;28;20461;-78
2021/03/18 05:53:44;;;;;;;0.20;0.10;;;;;;;-1.78;100.00;101117.91;5012331;28;21011;-78
2021/03/18 05:56:18;;;;;;;0.20;0.10;;;;;;;-1.86;100.00;101116.75;5011136;28;20452;-78
2021/03/18 05:58:46;;;;;;;0.20;0.10;;;;;;;-1.49;100.00;101121.50;5011083;28;20494;-77
2021/03/18 06:01:14;;;;;;;0.20;0.10;;;;;;;-1.36;100.00;101117.56;5011206;28;20487;-77
2021/03/18 06:03:40;;;;;;;0.20;0.10;;;;;;;-1.27;100.00;101116.13;5012282;28;20844;-78
2021/03/18 06:06:09;;;;;;;0.20;0.10;;;;;;;-1.14;100.00;101114.78;5011037;28;21373;-77
2021/03/18 06:08:36;;;;;;;0.20;0.10;;;;;;;-1.18;100.00;101099.91;5013456;28;20445;-77
2021/03/18 06:11:07;;;;;;;0.20;0.10;;;;;;;-1.09;100.00;101108.03;5011025;28;20783;-77
2021/03/18 06:13:35;;;;;;;0.30;0.20;;;;;;;-1.01;100.00;101111.75;5011931;28;20523;-77
2021/03/18 06:16:02;;;;;;;0.20;0.10;;;;;;;-0.88;100.00;101105.19;5010935;28;20459;-77
2021/03/18 06:18:29;;;;;;;0.20;0.10;;;;;;;-0.81;100.00;101117.59;5011147;28;20866;-77
2021/03/18 06:20:56;;;;;;;0.20;0.10;;;;;;;-0.83;100.00;101111.41;5012532;28;20938;-77
2021/03/18 06:23:23;;;;;;;0.20;0.10;;;;;;;-0.75;100.00;101106.44;5011339;28;20469;-78
2021/03/18 06:25:50;;;;;;;0.20;0.20;;;;;;;-0.61;100.00;101107.75;5012246;28;20454;-78
2021/03/18 06:28:26;;;;;;;0.20;0.10;;;;;;;-0.46;100.00;101113.41;5012255;28;20515;-78
2021/03/18 06:31:08;;;;;;;0.20;0.10;;;;;;;-0.35;100.00;101114.59;5006943;28;20942;-78
2021/03/18 06:33:37;;;;;;;0.20;0.10;;;;;;;-0.37;100.00;101118.03;5015855;28;20492;-78
2021/03/18 06:36:31;;;;;;;0.20;0.10;;;;;;;-0.03;100.00;101117.22;5014564;28;20488;-78
2021/03/18 06:39:04;;;;;;;0.20;0.10;;;;;;;-0.05;100.00;101119.78;5004300;28;20445;-78
2021/03/18 06:41:42;;;;;;;0.20;0.10;;;;;;;-0.01;100.00;101118.16;5014417;28;20448;-78
2021/03/18 06:44:20;;;;;;;0.20;0.10;;;;;;;0.15;100.00;101124.69;5015467;28;20574;-78
2021/03/18 06:46:47;;;;;;;0.20;0.10;;;;;;;0.32;100.00;101119.91;5014278;28;20481;-78
2021/03/18 06:49:15;;;;;;;0.20;0.10;;;;;;;0.37;100.00;101115.69;5014464;28;20444;-77
2021/03/18 06:51:42;;;;;;;0.20;0.10;;;;;;;0.85;100.00;101126.50;5015260;28;20461;-77
2021/03/18 06:54:21;;;;;;;0.20;0.10;;;;;;;0.94;100.00;101110.09;5014182;28;20492;-77
2021/03/18 06:56:59;;;;;;;0.20;0.10;;;;;;;0.88;100.00;101113.47;5003556;28;20461;-77
2021/03/18 06:59:27;;;;;;;0.20;0.10;;;;;;;1.20;100.00;101122.06;5015167;28;20475;-77
2021/03/18 07:02:14;;;;;;;0.20;0.10;;;;;;;1.06;100.00;101118.25;5015564;28;20860;-77
2021/03/18 07:04:41;;;;;;;0.20;0.10;;;;;;;1.15;100.00;101119.34;5014931;28;20537;-77
2021/03/18 07:07:09;;;;;;;0.20;0.10;;;;;;;1.64;100.00;101124.78;5014993;28;20926;-77
2021/03/18 07:09:36;;;;;;;0.20;0.10;;;;;;;1.78;100.00;101129.47;5000720;28;20456;-77
2021/03/18 07:12:09;;;;;;;0.20;0.10;;;;;;;1.97;100.00;101127.22;5014945;28;20858;-77
2021/03/18 07:14:38;;;;;;;0.20;0.10;;;;;;;1.82;100.00;101119.03;5013657;28;20488;-77
2021/03/18 07:17:06;;;;;;;0.20;0.10;;;;;;;1.85;100.00;101119.09;5014890;28;20448;-78
2021/03/18 07:19:32;;;;;;;0.20;0.13;;;;;;;1.83;100.00;101123.44;5013779;28;20992;-77
2021/03/18 07:22:00;;;;;;;0.20;0.10;;;;;;;1.83;100.00;101120.81;5013377;28;20540;-78
2021/03/18 07:24:31;;;;;;;0.20;0.10;;;;;;;1.78;100.00;101119.00;5014910;28;20475;-78
2021/03/18 07:27:10;;;;;;;0.20;0.10;;;;;;;1.58;100.00;101114.19;5014975;28;20980;-78
2021/03/18 07:29:40;;;;;;;0.20;0.10;;;;;;;1.69;100.00;101118.78;5014861;28;20834;-77
2021/03/18 07:32:06;;;;;;;0.20;0.10;;;;;;;1.68;100.00;101118.75;5014594;28;20867;-78
2021/03/18 07:34:33;;;;;;;0.20;0.10;;;;;;;1.58;100.00;101109.81;5014486;28;20492;-78
2021/03/18 07:37:06;;;;;;;0.20;0.10;;;;;;;1.56;100.00;101114.16;5016337;28;20966;-77
2021/03/18 07:39:32;;;;;;;0.20;0.10;;;;;;;1.74;100.00;101108.41;5014869;28;20449;-78
2021/03/18 07:41:59;;;;;;;0.23;0.20;;;;;;;1.98;100.00;101110.63;5001753;28;20461;-78
2021/03/18 07:44:26;;;;;;;0.20;0.10;;;;;;;1.90;100.00;101114.81;5013570;28;20476;-78
2021/03/18 07:46:53;;;;;;;0.20;0.10;;;;;;;1.87;100.00;101106.91;5014938;28;20942;-78
2021/03/18 07:49:23;;;;;;;0.20;0.10;;;;;;;1.86;100.00;101103.41;5013624;28;20467;-77
2021/03/18 07:51:59;;;;;;;0.20;0.10;;;;;;;1.88;100.00;101112.19;5014186;28;20472;-78
2021/03/18 07:54:26;;;;;;;0.20;0.10;;;;;;;1.88;100.00;101101.69;5013503;28;20566;-79
2021/03/18 07:56:55;;;;;;;0.20;0.10;;;;;;;2.07;100.00;101108.19;5013843;28;20502;-77
2021/03/18 07:59:28;;;;;;;0.20;0.10;;;;;;;2.20;100.00;101101.44;5014647;28;20464;-78
2021/03/18 08:02:21;;;;;;;0.20;0.10;;;;;;;2.47;100.00;101101.00;5015025;28;20799;-79
2021/03/18 08:04:48;;;;;;;0.20;0.10;;;;;;;2.53;100.00;101098.50;5014647;28;20484;-78
2021/03/18 08:07:39;;;;;;;0.20;0.10;;;;;;;2.83;99.82;101103.38;5013373;28;20938;-78
2021/03/18 08:10:28;;;;;;;0.20;0.10;;;;;;;2.66;99.95;101080.38;5013355;28;20459;-78
2021/03/18 08:13:03;;;;;;;0.20;0.10;;;;;;;2.65;99.44;101093.47;5014402;28;20527;-79
2021/03/18 08:15:38;;;;;;;0.20;0.10;;;;;;;2.66;99.98;101092.63;5013465;28;20550;-78
2021/03/18 08:18:13;;;;;;;0.20;0.10;;;;;;;2.64;99.84;101083.84;5013566;28;20449;-78
2021/03/18 08:20:40;;;;;;;0.20;0.10;;;;;;;2.94;99.92;101093.94;5014785;28;20490;-78
2021/03/18 08:23:27;;;;;;;0.20;0.10;;;;;;;2.83;99.19;101083.25;5012895;28;20876;-79
2021/03/18 08:25:57;;;;;;;0.20;0.20;;;;;;;2.70;99.68;101060.31;5014541;28;20463;-78
2021/03/18 08:28:42;;;;;;;0.20;0.17;;;;;;;3.39;98.33;101074.44;5014302;28;20987;-78
2021/03/18 08:31:13;;;;;;;0.20;0.10;;;;;;;2.92;98.21;101070.28;5012985;28;20448;-78
2021/03/18 08:33:46;;;;;;;0.20;0.20;;;;;;;2.83;98.79;101077.13;5019261;28;20468;-79
2021/03/18 08:36:35;;;;;;;0.20;0.13;;;;;;;2.78;99.56;101073.56;5034934;28;20453;-78
2021/03/18 08:39:29;;;;;;;0.30;0.20;;;;;;;2.94;99.42;101081.69;5008149;28;20455;-78
2021/03/18 08:41:55;;;;;;;0.20;0.10;;;;;;;3.19;99.15;101076.81;5016573;28;20460;-78
2021/03/18 08:44:28;;;;;;;0.20;0.10;;;;;;;3.25;98.03;101080.38;5017116;28;20477;-78
2021/03/18 08:47:00;;;;;;;0.20;0.10;;;;;;;3.45;98.17;101069.28;5004050;28;20449;-78
2021/03/18 08:49:31;;;;;;;0.20;0.10;;;;;;;3.30;97.49;101076.97;5013724;28;20445;-79
2021/03/18 08:52:25;;;;;;;0.20;0.10;;;;;;;3.66;96.32;101066.88;5014032;28;20879;-78
2021/03/18 08:54:52;;;;;;;0.20;0.10;;;;;;;3.56;96.78;101065.91;5012165;28;20488;-78
2021/03/18 08:57:24;;;;;;;0.20;0.10;;;;;;;3.68;96.45;101067.78;5014490;28;20811;-79
2021/03/18 08:59:56;;;;;;;0.20;0.10;;;;;;;3.87;95.86;101068.91;5001147;28;20507;-78
2021/03/18 09:02:30;;;;;;;0.20;0.10;;;;;;;3.46;96.45;101071.03;5013625;28;20526;-78
2021/03/18 09:04:57;;;;;;;0.20;0.10;;;;;;;3.31;96.55;101070.84;5014219;28;20453;-78
2021/03/18 09:07:27;;;;;;;0.20;0.10;;;;;;;3.89;96.12;101067.16;5013345;28;20511;-79
2021/03/18 09:10:05;;;;;;;0.20;0.10;;;;;;;3.82;94.95;101073.22;5012931;28;20480;-78
2021/03/18 09:12:40;;;;;;;0.20;0.10;;;;;;;3.69;96.07;101068.66;5012372;28;20873;-78
2021/03/18 09:15:27;;;;;;;0.20;0.20;;;;;;;3.90;96.61;101062.78;5015162;28;20564;-79
2021/03/18 09:17:57;;;;;;;0.27;0.20;;;;;;;4.17;94.23;101063.06;5003255;28;20456;-80
2021/03/18 09:20:29;;;;;;;0.20;0.13;;;;;;;4.09;93.05;101072.63;5012506;28;20480;-77
2021/03/18 09:23:32;;;;;;;0.20;0.10;;;;;;;4.08;93.39;101071.75;5013673;28;20898;-78
2021/03/18 09:26:01;;;;;;;3.03;1.90;;;;;;;4.81;92.12;101061.00;5006521;28;20467;-78
2021/03/18 09:28:39;;;;;;;0.20;0.10;;;;;;;5.19;90.47;101057.72;5026225;28;20448;-79
2021/03/18 09:31:06;;;;;;;0.20;0.20;;;;;;;5.14;90.22;101055.06;5016316;28;20558;-79
2021/03/18 09:33:35;;;;;;;0.30;0.10;;;;;;;5.06;90.64;101057.63;5013754;28;20476;-79
2021/03/18 09:36:20;;;;;;;0.20;0.10;;;;;;;4.92;90.96;101058.41;5014620;28;20488;-79
2021/03/18 09:38:53;;;;;;;0.20;0.20;;;;;;;5.23;91.21;101060.41;5001956;28;20905;-79
2021/03/18 09:41:23;;;;;;;0.20;0.10;;;;;;;5.54;89.93;101058.78;5015063;28;20448;-79
2021/03/18 09:44:14;;;;;;;0.20;0.10;;;;;;;5.62;89.82;101051.78;5014847;28;20526;-79
2021/03/18 09:46:55;;;;;;;0.20;0.10;;;;;;;5.65;89.09;101057.06;5015477;28;20514;-78
2021/03/18 09:49:32;;;;;;;0.30;0.13;;;;;;;6.09;86.64;101063.38;5015015;28;20472;-78
2021/03/18 09:52:01;;;;;;;0.20;0.10;;;;;;;6.31;86.49;101045.84;5012218;28;20938;-78
2021/03/18 09:54:29;;;;;;;0.50;0.50;;;;;;;6.19;87.31;101055.50;5015536;28;21056;-82
2021/03/18 09:57:03;;;;;;;0.30;0.20;;;;;;;6.47;85.99;101045.84;5014894;28;20451;-82
2021/03/18 09:59:29;;;;;;;0.20;0.20;;;;;;;5.84;86.94;101039.53;5014392;28;20468;-82
2021/03/18 10:01:56;;;;;;;0.20;0.10;;;;;;;6.43;85.15;101043.19;5013437;28;20935;-81
2021/03/18 10:04:23;;;;;;;0.20;0.10;;;;;;;6.25;83.09;101036.13;5015067;28;20896;-82
2021/03/18 10:06:56;;;;;;;0.30;0.17;;;;;;;6.54;82.87;101038.78;5014554;28;20448;-82
2021/03/18 10:09:32;;;;;;;0.30;0.20;;;;;;;6.70;82.70;101029.97;5017497;28;20456;-82
2021/03/18 10:12:07;;;;;;;0.20;0.10;;;;;;;6.86;82.18;101029.97;5017231;28;20511;-81
2021/03/18 10:14:54;;;;;;;0.20;0.10;;;;;;;7.29;80.07;101023.69;5017217;28;20491;-82
2021/03/18 10:17:25;;;;;;;0.30;0.10;;;;;;;7.01;78.07;101012.31;5019950;28;20451;-81
2021/03/18 10:19:57;;;;;;;0.30;0.20;;;;;;;7.32;77.86;100999.88;5017746;28;20455;-81
2021/03/18 10:22:30;;;;;;;0.30;0.13;;;;;;;7.37;77.53;101000.72;5018778;28;20437;-77
2021/03/18 10:25:25;;;;;;;0.30;0.20;;;;;;;7.47;75.06;100998.94;5018898;28;20522;-82
2021/03/18 10:28:12;;;;;;;0.70;0.70;;;;;;;7.36;75.78;101000.72;5008157;28;20451;-82
2021/03/18 10:30:49;;;;;;;0.30;0.20;;;;;;;7.07;74.17;100993.78;5018434;28;20491;-82
2021/03/18 10:33:25;;;;;;;0.30;0.20;;;;;;;7.20;71.32;100993.75;5018778;28;20464;-81
2021/03/18 10:35:52;;;;;;;0.30;0.13;;;;;;;7.11;69.73;100992.00;5020499;28;20491;-82
2021/03/18 10:38:28;;;;;;;0.30;0.10;;;;;;;7.53;66.44;100983.00;5019752;28;20510;-82
2021/03/18 10:40:56;;;;;;;0.27;0.10;;;;;;;7.45;66.34;100986.59;5018136;28;20791;-82
2021/03/18 10:43:28;;;;;;;0.30;0.10;;;;;;;7.73;67.98;100982.94;5019351;28;20464;-82
2021/03/18 10:46:02;;;;;;;0.27;0.10;;;;;;;7.57;67.56;100965.38;5018698;28;20575;-81
2021/03/18 10:48:31;;;;;;;0.20;0.20;;;;;;;7.32;66.78;100970.78;5019582;28;20460;-82
2021/03/18 10:51:03;;;;;;;0.30;0.10;;;;;;;7.33;65.96;100979.59;5018587;28;20548;-82
2021/03/18 10:53:34;;;;;;;0.30;0.20;;;;;;;7.88;68.67;100964.31;5006834;28;20623;-82
2021/03/18 10:56:10;;;;;;;0.30;0.20;;;;;;;8.14;65.35;100963.25;5019557;28;20926;-82
2021/03/18 10:58:38;;;;;;;0.30;0.20;;;;;;;7.65;61.94;100963.56;5019709;28;20460;-84
2021/03/18 11:01:09;;;;;;;0.30;0.20;;;;;;;7.79;64.42;100953.75;5019590;28;20459;-83
2021/03/18 11:03:39;;;;;;;0.30;0.20;;;;;;;8.24;65.80;100960.50;5019414;28;20519;-82
2021/03/18 11:06:20;;;;;;;0.30;0.20;;;;;;;8.25;63.37;100951.66;5020536;28;20445;-82
2021/03/18 11:08:51;;;;;;;0.30;0.20;;;;;;;8.39;63.60;100948.06;5019831;28;20457;-82
2021/03/18 11:11:19;;;;;;;0.30;0.20;;;;;;;8.73;65.00;100944.16;5006892;28;20453;-85
2021/03/18 11:13:45;;;;;;;0.30;0.20;;;;;;;8.44;64.48;100947.13;5017067;28;20476;-84
2021/03/18 11:16:20;;;;;;;0.30;0.20;;;;;;;8.31;63.61;100940.13;5016950;28;20511;-82
2021/03/18 11:18:48;;;;;;;0.30;0.20;;;;;;;8.80;63.11;100935.28;5018801;28;20444;-82
2021/03/18 11:21:26;;;;;;;0.30;0.10;;;;;;;8.74;61.94;100939.75;5016173;28;20538;-82
2021/03/18 11:23:55;;;;;;;0.30;0.20;;;;;;;8.68;61.86;100935.41;5015773;28;20981;-82
2021/03/18 11:26:24;;;;;;;0.30;0.20;;;;;;;8.72;62.61;100929.16;5017343;28;20996;-82
2021/03/18 11:28:58;;;;;;;0.30;0.20;;;;;;;9.01;62.13;100920.00;5018794;28;20826;-82
2021/03/18 11:31:27;;;;;;;0.30;0.20;;;;;;;8.93;61.76;100929.84;5012512;28;20452;-82
2021/03/18 11:33:54;;;;;;;0.30;0.20;;;;;;;8.92;63.00;100917.47;5006093;28;20479;-82
2021/03/18 11:36:21;;;;;;;0.30;0.10;;;;;;;8.70;60.95;100924.78;5017930;28;20464;-83
2021/03/18 11:38:48;;;;;;;0.30;0.20;;;;;;;8.56;60.03;100919.63;5005920;28;20935;-82
2021/03/18 11:41:15;;;;;;;0.30;0.20;;;;;;;8.43;62.58;100913.56;5018126;28;20957;-83
2021/03/18 11:43:41;;;;;;;0.30;0.20;;;;;;;8.64;61.67;100901.00;5017731;28;21016;-81